Time;durP1;ratioP1;P1;durP2;ratioP2;P2;SDS_P1;SDS_P2;PMS_P1;PMS_P2;Temp;Humidity;BMP_temperature;BMP_pressure;BME280_temperature;BME280_humidity;BME280_pressure;Samples;Min_cycle;Max_cycle;Signal;HPM_P1;HPM_P2
2023/11/10 00:00:28;;;;;;;17.50;9.90;;;;;;;7.62;77.10;99348.98;130661;1263;107768;-78
2023/11/10 00:03:53;;;;;;;16.40;9.60;;;;;;;7.63;77.00;99347.98;130783;1260;110112;-78
2023/11/10 00:06:59;;;;;;;16.10;9.30;;;;;;;7.62;76.85;99342.77;130829;1254;107624;-78
2023/11/10 00:10:07;;;;;;;16.80;8.90;;;;;;;7.59;76.85;99343.42;130613;1258;107056;-77
2023/11/10 00:13:15;;;;;;;13.50;7.40;;;;;;;7.57;76.79;99340.55;130710;1254;106895;-79
2023/11/10 00:16:21;;;;;;;14.50;9.00;;;;;;;7.55;76.82;99337.11;130578;1267;106926;-80
2023/11/10 00:19:26;;;;;;;20.00;11.10;;;;;;;7.57;76.62;99336.66;130682;1261;107137;-79
2023/11/10 00:22:32;;;;;;;16.70;9.60;;;;;;;7.58;76.71;99337.20;130766;1254;108334;-78
2023/11/10 00:25:38;;;;;;;15.50;8.90;;;;;;;7.57;76.67;99329.89;130631;1254;108279;-78
2023/11/10 00:28:44;;;;;;;14.70;9.30;;;;;;;7.56;76.55;99332.42;130662;1254;108102;-78
2023/11/10 00:31:49;;;;;;;15.60;9.70;;;;;;;7.54;76.48;99333.36;130610;1257;107585;-78
2023/11/10 00:34:55;;;;;;;13.70;8.80;;;;;;;7.51;76.70;99334.95;130684;1259;107862;-78
2023/11/10 00:38:00;;;;;;;15.90;9.80;;;;;;;7.46;76.64;99327.94;130710;1255;107735;-79
2023/11/10 00:41:06;;;;;;;16.30;9.70;;;;;;;7.41;76.56;99326.70;130602;1257;108280;-78
2023/11/10 00:44:12;;;;;;;13.80;9.10;;;;;;;7.35;76.85;99325.86;130666;1260;107647;-78
2023/11/10 00:47:17;;;;;;;15.50;9.50;;;;;;;7.32;76.79;99323.84;130710;1257;107361;-78
2023/11/10 00:50:23;;;;;;;14.90;8.10;;;;;;;7.28;76.89;99315.64;130677;1254;108675;-77
2023/11/10 00:53:28;;;;;;;15.30;8.10;;;;;;;7.24;76.83;99311.28;130668;1259;107162;-78
2023/11/10 00:56:34;;;;;;;13.90;8.40;;;;;;;7.23;76.85;99308.52;130635;1261;107759;-78
2023/11/10 00:59:40;;;;;;;16.20;8.80;;;;;;;7.23;76.77;99306.44;130657;1261;107550;-78
2023/11/10 01:02:45;;;;;;;12.90;8.30;;;;;;;7.23;76.68;99303.73;130660;1257;107992;-77
2023/11/10 01:05:51;;;;;;;15.20;9.20;;;;;;;7.23;76.81;99300.88;130917;1254;106897;-78
2023/11/10 01:08:57;;;;;;;12.30;8.70;;;;;;;7.22;76.81;99301.73;130752;1255;108455;-78
2023/11/10 01:12:03;;;;;;;14.40;8.90;;;;;;;7.20;76.69;99296.61;130709;1260;108582;-79
2023/11/10 01:15:12;;;;;;;14.80;9.40;;;;;;;7.17;76.81;99297.84;130662;1257;107984;-79
2023/11/10 01:18:17;;;;;;;16.20;9.20;;;;;;;7.14;76.86;99297.45;130842;1260;106569;-78
2023/11/10 01:21:23;;;;;;;14.10;8.90;;;;;;;7.12;76.78;99294.48;130717;1257;106723;-79
2023/11/10 01:24:29;;;;;;;15.30;9.50;;;;;;;7.10;76.70;99289.70;130730;1267;107395;-79
2023/11/10 01:27:34;;;;;;;13.10;8.80;;;;;;;7.05;76.68;99284.63;130672;1259;107476;-79
2023/11/10 01:30:40;;;;;;;14.50;8.80;;;;;;;7.02;76.74;99282.53;130667;1257;107421;-79
2023/11/10 01:33:46;;;;;;;13.60;8.10;;;;;;;6.98;76.78;99278.86;130746;1260;106390;-78
2023/11/10 01:36:51;;;;;;;13.00;8.30;;;;;;;6.98;77.02;99276.71;130633;1261;107705;-81
2023/11/10 01:39:57;;;;;;;18.60;9.40;;;;;;;7.00;77.21;99270.66;130629;1259;107926;-78
2023/11/10 01:43:08;;;;;;;14.10;8.80;;;;;;;7.02;76.83;99264.30;130549;1263;107193;-78
2023/11/10 01:46:42;;;;;;;16.60;9.30;;;;;;;7.03;76.94;99265.10;130627;1257;108390;-78
2023/11/10 01:49:48;;;;;;;15.80;9.30;;;;;;;7.02;76.56;99264.10;130693;1260;108096;-80
2023/11/10 01:52:54;;;;;;;13.60;8.70;;;;;;;7.00;76.81;99260.98;130623;1254;107770;-80
2023/11/10 01:56:00;;;;;;;13.80;9.30;;;;;;;6.96;76.61;99259.27;130680;1257;106511;-78
2023/11/10 01:59:07;;;;;;;16.10;10.00;;;;;;;6.93;76.65;99260.59;130639;1261;107440;-78
2023/11/10 02:02:12;;;;;;;14.80;8.90;;;;;;;6.90;76.68;99259.13;130721;1254;108749;-79
2023/11/10 02:05:18;;;;;;;16.40;9.80;;;;;;;6.86;76.72;99257.89;130720;1254;108485;-79
2023/11/10 02:08:24;;;;;;;14.70;9.10;;;;;;;6.84;76.97;99248.05;130662;1260;107780;-77
2023/11/10 02:11:31;;;;;;;13.50;8.10;;;;;;;6.79;76.83;99246.80;130618;1257;108710;-78
2023/11/10 02:14:37;;;;;;;11.30;7.40;;;;;;;6.74;76.84;99243.05;130648;1259;107680;-77
2023/11/10 02:17:42;;;;;;;14.70;8.80;;;;;;;6.75;76.93;99240.00;130695;1264;106496;-77
2023/11/10 02:20:48;;;;;;;15.40;8.70;;;;;;;6.80;76.98;99236.79;130668;1260;108565;-80
2023/11/10 02:23:57;;;;;;;14.50;9.10;;;;;;;6.85;76.92;99242.30;130662;1260;108650;-80
2023/11/10 02:27:03;;;;;;;14.80;8.30;;;;;;;6.88;76.99;99238.64;130668;1254;107598;-79
2023/11/10 02:30:11;;;;;;;13.20;8.50;;;;;;;6.91;76.68;99234.89;130660;1257;108689;-79
2023/11/10 02:33:17;;;;;;;16.20;8.90;;;;;;;6.93;76.92;99226.71;130746;1257;106650;-80
2023/11/10 02:36:23;;;;;;;13.40;8.60;;;;;;;6.92;76.86;99218.98;130601;1259;106959;-79
2023/11/10 02:39:29;;;;;;;15.30;8.50;;;;;;;6.93;76.70;99219.09;130811;1260;108593;-80
2023/11/10 02:42:35;;;;;;;13.20;8.70;;;;;;;6.91;76.74;99222.69;130710;1257;107678;-80
2023/11/10 02:45:41;;;;;;;15.40;9.00;;;;;;;6.89;76.80;99219.80;130652;1257;106582;-80
2023/11/10 02:48:46;;;;;;;13.40;8.50;;;;;;;6.90;76.69;99221.02;130735;1257;106549;-80
2023/11/10 02:51:52;;;;;;;12.40;8.00;;;;;;;6.87;76.97;99215.60;130670;1260;107226;-80
2023/11/10 02:54:57;;;;;;;12.70;7.40;;;;;;;6.86;76.92;99211.77;130677;1257;107686;-80
2023/11/10 02:58:03;;;;;;;13.60;8.40;;;;;;;6.88;76.88;99206.81;130556;1270;107709;-80
2023/11/10 03:01:08;;;;;;;11.80;8.00;;;;;;;6.94;76.94;99205.58;130646;1259;108052;-80
2023/11/10 03:04:14;;;;;;;12.70;8.50;;;;;;;6.99;77.19;99203.77;130772;1260;107604;-79
2023/11/10 03:07:19;;;;;;;15.00;8.00;;;;;;;7.04;76.87;99197.77;131062;1254;106401;-80
2023/11/10 03:10:26;;;;;;;17.20;9.90;;;;;;;7.08;76.94;99194.55;130638;1254;108744;-78
2023/11/10 03:13:32;;;;;;;11.90;8.20;;;;;;;7.10;77.02;99195.39;130588;1254;107641;-78
2023/11/10 03:16:37;;;;;;;13.70;8.20;;;;;;;7.11;77.04;99194.07;130620;1261;107019;-78
2023/11/10 03:19:44;;;;;;;13.70;8.60;;;;;;;7.11;77.00;99195.20;130666;1260;107668;-77
2023/11/10 03:22:49;;;;;;;12.80;8.20;;;;;;;7.08;77.07;99196.34;130720;1259;106884;-78
2023/11/10 03:25:55;;;;;;;13.20;8.40;;;;;;;7.05;76.81;99192.02;130968;1254;107946;-77
2023/11/10 03:29:02;;;;;;;11.20;6.80;;;;;;;7.03;77.17;99197.70;130786;1259;107091;-77
2023/11/10 03:32:09;;;;;;;12.30;7.10;;;;;;;7.01;77.32;99194.91;130729;1254;108650;-74
2023/11/10 03:35:15;;;;;;;13.40;7.90;;;;;;;7.04;77.20;99193.89;130660;1257;108166;-74
2023/11/10 03:38:21;;;;;;;11.70;7.10;;;;;;;7.11;77.24;99187.90;130634;1257;108572;-75
2023/11/10 03:41:26;;;;;;;14.20;7.90;;;;;;;7.17;77.12;99184.63;130851;1265;107528;-76
2023/11/10 03:44:32;;;;;;;11.80;7.50;;;;;;;7.22;77.00;99183.96;130813;1254;108701;-76
2023/11/10 03:47:39;;;;;;;11.30;7.40;;;;;;;7.25;77.02;99173.59;130840;1254;106906;-76
2023/11/10 03:50:45;;;;;;;12.40;7.70;;;;;;;7.25;76.93;99176.70;130775;1257;107646;-76
2023/11/10 03:53:50;;;;;;;12.20;7.60;;;;;;;7.24;77.05;99179.80;130681;1253;108439;-76
2023/11/10 03:56:56;;;;;;;12.10;7.60;;;;;;;7.24;77.07;99179.73;130681;1258;108384;-75
2023/11/10 04:00:01;;;;;;;11.50;7.70;;;;;;;7.21;77.09;99177.16;130696;1254;107238;-76
2023/11/10 04:03:07;;;;;;;10.60;7.40;;;;;;;7.19;77.03;99179.65;130741;1257;108434;-76
2023/11/10 04:06:13;;;;;;;9.90;7.10;;;;;;;7.16;77.09;99182.42;130711;1257;106786;-76
2023/11/10 04:09:19;;;;;;;11.80;6.30;;;;;;;7.12;77.16;99178.83;130669;1257;108966;-76
2023/11/10 04:12:26;;;;;;;10.60;6.40;;;;;;;7.09;77.25;99175.20;130669;1254;106444;-75
2023/11/10 04:15:31;;;;;;;16.10;7.60;;;;;;;7.09;76.86;99174.16;130729;1254;107788;-76
2023/11/10 04:18:38;;;;;;;13.20;7.50;;;;;;;7.12;77.40;99175.60;130727;1254;108670;-75
2023/11/10 04:21:44;;;;;;;13.10;7.40;;;;;;;7.16;77.14;99170.73;130808;1257;107583;-76
2023/11/10 04:24:49;;;;;;;11.60;7.20;;;;;;;7.21;77.15;99169.89;130690;1257;107444;-76
2023/11/10 04:27:55;;;;;;;9.50;6.90;;;;;;;7.24;76.94;99164.63;130732;1257;109004;-76
2023/11/10 04:31:01;;;;;;;10.80;6.50;;;;;;;7.25;77.14;99156.34;130599;1254;107523;-76
2023/11/10 04:34:06;;;;;;;10.80;7.00;;;;;;;7.26;77.20;99157.90;130858;1257;107511;-76
2023/11/10 04:37:12;;;;;;;10.60;7.00;;;;;;;7.24;76.99;99155.07;130542;1259;106827;-76
2023/11/10 04:40:18;;;;;;;9.90;6.90;;;;;;;7.22;77.05;99150.99;130573;1257;108226;-76
2023/11/10 04:43:24;;;;;;;9.90;6.90;;;;;;;7.21;77.16;99148.66;130740;1254;108396;-74
2023/11/10 04:46:31;;;;;;;10.10;6.60;;;;;;;7.20;77.07;99144.95;130585;1257;106828;-77
2023/11/10 04:49:38;;;;;;;10.20;5.60;;;;;;;7.17;77.21;99148.17;130720;1254;107845;-76
2023/11/10 04:52:43;;;;;;;10.10;6.40;;;;;;;7.18;77.20;99146.86;130585;1257;107694;-76
2023/11/10 04:55:49;;;;;;;10.00;6.10;;;;;;;7.21;77.40;99135.23;130679;1253;108249;-76
2023/11/10 04:58:55;;;;;;;10.20;6.50;;;;;;;7.26;77.42;99129.71;130646;1257;108679;-76
2023/11/10 05:02:00;;;;;;;11.10;6.50;;;;;;;7.31;77.28;99124.49;130724;1258;108632;-76
2023/11/10 05:05:07;;;;;;;8.30;6.10;;;;;;;7.33;77.33;99122.08;130656;1254;107473;-76
2023/11/10 05:08:13;;;;;;;10.70;6.50;;;;;;;7.33;77.37;99123.50;130695;1257;106627;-76
2023/11/10 05:11:19;;;;;;;10.60;7.00;;;;;;;7.32;77.14;99126.65;130686;1257;108533;-75
2023/11/10 05:14:24;;;;;;;9.50;6.20;;;;;;;7.30;77.27;99131.69;130628;1257;108714;-76
2023/11/10 05:17:30;;;;;;;10.00;6.70;;;;;;;7.27;77.40;99131.25;130588;1259;106478;-77
2023/11/10 05:20:35;;;;;;;10.80;7.10;;;;;;;7.23;77.30;99131.99;130699;1258;107909;-75
2023/11/10 05:23:41;;;;;;;11.20;6.20;;;;;;;7.16;77.14;99130.39;130626;1259;107634;-76
2023/11/10 05:26:48;;;;;;;10.00;6.00;;;;;;;7.12;77.34;99132.77;130590;1258;108680;-78
2023/11/10 05:29:54;;;;;;;12.70;6.70;;;;;;;7.13;77.23;99133.80;130555;1259;107441;-77
2023/11/10 05:33:00;;;;;;;7.80;5.90;;;;;;;7.14;77.40;99133.83;130700;1257;107773;-75
2023/11/10 05:36:14;;;;;;;10.60;6.70;;;;;;;7.15;77.49;99131.09;130759;1254;107319;-78
2023/11/10 05:39:23;;;;;;;10.20;6.50;;;;;;;7.16;77.41;99138.02;130511;1257;107535;-76
2023/11/10 05:42:30;;;;;;;9.80;6.20;;;;;;;7.16;77.37;99149.52;130547;1260;108239;-76
2023/11/10 05:45:36;;;;;;;9.30;6.60;;;;;;;7.15;77.57;99150.52;130662;1260;108559;-76
2023/11/10 05:48:41;;;;;;;10.10;6.80;;;;;;;7.12;77.41;99146.27;130788;1260;107012;-76
2023/11/10 05:51:47;;;;;;;9.30;6.70;;;;;;;7.07;77.25;99148.82;130644;1254;106143;-77
2023/11/10 05:54:53;;;;;;;9.40;6.60;;;;;;;7.03;77.26;99153.28;130675;1258;106633;-76
2023/11/10 05:57:58;;;;;;;11.30;6.30;;;;;;;6.99;77.64;99151.07;130637;1257;107584;-78
2023/11/10 06:01:04;;;;;;;14.00;7.80;;;;;;;6.97;77.90;99150.30;130617;1257;107640;-75
2023/11/10 06:04:10;;;;;;;9.20;6.40;;;;;;;6.96;77.88;99155.60;130735;1257;108592;-77
2023/11/10 06:07:16;;;;;;;8.40;6.20;;;;;;;6.99;77.79;99151.60;130718;1256;107687;-77
2023/11/10 06:10:22;;;;;;;9.40;6.60;;;;;;;7.04;77.73;99149.70;130607;1259;107636;-77
2023/11/10 06:13:28;;;;;;;9.70;6.60;;;;;;;7.08;78.14;99147.91;130625;1259;108618;-83
2023/11/10 06:16:33;;;;;;;9.50;6.40;;;;;;;7.11;77.82;99148.52;130997;1253;107074;-83
2023/11/10 06:19:39;;;;;;;14.30;6.60;;;;;;;7.12;77.93;99149.78;130886;1254;108584;-83
2023/11/10 06:22:45;;;;;;;9.50;6.90;;;;;;;7.13;77.94;99149.69;130884;1257;108572;-83
2023/11/10 06:25:50;;;;;;;10.50;6.70;;;;;;;7.13;77.97;99150.19;131020;1254;106610;-83
2023/11/10 06:28:56;;;;;;;9.00;5.80;;;;;;;7.12;77.93;99152.44;130931;1260;107806;-83
2023/11/10 06:32:02;;;;;;;11.80;5.90;;;;;;;7.13;78.07;99152.70;130918;1257;108106;-83
2023/11/10 06:35:09;;;;;;;9.40;5.80;;;;;;;7.15;78.22;99151.09;130988;1257;106520;-83
2023/11/10 06:38:14;;;;;;;8.50;6.30;;;;;;;7.21;78.36;99152.88;130809;1257;107568;-82
2023/11/10 06:41:20;;;;;;;9.20;6.50;;;;;;;7.27;78.39;99153.29;130888;1257;108967;-82
2023/11/10 06:44:26;;;;;;;9.70;6.40;;;;;;;7.33;78.39;99157.70;130811;1258;106733;-83
2023/11/10 06:47:33;;;;;;;8.90;6.50;;;;;;;7.38;78.32;99156.80;130894;1259;107630;-83
2023/11/10 06:50:38;;;;;;;10.00;6.40;;;;;;;7.43;78.27;99155.03;130898;1257;107671;-82
2023/11/10 06:53:45;;;;;;;11.30;6.80;;;;;;;7.44;78.42;99160.58;130844;1257;106396;-82
2023/11/10 06:56:53;;;;;;;9.70;7.00;;;;;;;7.46;78.39;99154.14;130956;1257;108070;-82
2023/11/10 06:59:58;;;;;;;8.90;6.60;;;;;;;7.49;78.41;99156.73;130850;1257;108768;-82
2023/11/10 07:03:11;;;;;;;10.60;6.30;;;;;;;7.50;78.54;99156.13;130836;1259;107573;-82
2023/11/10 07:06:17;;;;;;;9.80;6.70;;;;;;;7.55;78.59;99151.73;130873;1259;107657;-82
2023/11/10 07:09:25;;;;;;;10.20;6.90;;;;;;;7.62;78.51;99153.77;130967;1253;107664;-82
2023/11/10 07:12:31;;;;;;;9.50;6.90;;;;;;;7.69;78.47;99154.79;130811;1257;106903;-82
2023/11/10 07:15:36;;;;;;;9.50;6.80;;;;;;;7.77;78.69;99153.11;130940;1253;107746;-82
2023/11/10 07:18:42;;;;;;;9.20;6.60;;;;;;;7.83;78.54;99158.78;130935;1259;107601;-82
2023/11/10 07:21:48;;;;;;;9.50;7.10;;;;;;;7.91;78.63;99164.00;130937;1254;107691;-82
2023/11/10 07:24:55;;;;;;;9.60;6.50;;;;;;;7.98;78.66;99162.75;130815;1256;106781;-82
2023/11/10 07:28:00;;;;;;;9.40;6.90;;;;;;;8.02;78.64;99164.21;130904;1257;107079;-82
2023/11/10 07:31:07;;;;;;;9.40;6.50;;;;;;;8.08;78.68;99161.84;130844;1259;107564;-82
2023/11/10 07:34:12;;;;;;;9.80;5.60;;;;;;;8.14;78.71;99155.88;130955;1253;108596;-82
2023/11/10 07:37:19;;;;;;;10.20;6.90;;;;;;;8.24;78.73;99152.52;130842;1253;108404;-82
2023/11/10 07:40:25;;;;;;;9.30;6.40;;;;;;;8.38;78.84;99148.04;130942;1257;107599;-82
2023/11/10 07:43:30;;;;;;;9.20;6.50;;;;;;;8.51;78.75;99154.81;130893;1259;108561;-82
2023/11/10 07:46:35;;;;;;;11.10;7.10;;;;;;;8.61;78.72;99151.88;130928;1254;107653;-82
2023/11/10 07:49:41;;;;;;;10.00;6.90;;;;;;;8.71;78.53;99148.35;130922;1254;105837;-82
2023/11/10 07:52:48;;;;;;;11.00;6.90;;;;;;;8.77;78.63;99154.72;130943;1257;109081;-82
2023/11/10 07:55:54;;;;;;;10.10;6.90;;;;;;;8.81;78.64;99154.13;130883;1259;106705;-82
2023/11/10 07:58:59;;;;;;;11.10;7.60;;;;;;;8.82;78.58;99150.13;130876;1257;107175;-82
2023/11/10 08:02:05;;;;;;;10.00;7.20;;;;;;;8.82;78.64;99149.23;131058;1257;106542;-82
2023/11/10 08:05:11;;;;;;;10.70;6.80;;;;;;;8.81;78.67;99160.17;131004;1257;108742;-82
2023/11/10 08:08:17;;;;;;;10.20;6.00;;;;;;;8.82;78.64;99165.63;130982;1257;107246;-82
2023/11/10 08:11:23;;;;;;;10.80;7.30;;;;;;;8.83;78.57;99166.49;130904;1256;108608;-84
2023/11/10 08:14:29;;;;;;;9.40;7.10;;;;;;;8.86;78.56;99160.20;130856;1257;108598;-84
2023/11/10 08:17:34;;;;;;;10.20;6.90;;;;;;;8.91;78.78;99161.23;130895;1257;108542;-82
2023/11/10 08:20:40;;;;;;;11.40;7.30;;;;;;;8.94;78.72;99162.35;131146;1258;108682;-81
2023/11/10 08:23:46;;;;;;;11.20;7.50;;;;;;;8.95;78.60;99163.56;131010;1254;108659;-82
2023/11/10 08:26:53;;;;;;;9.40;7.30;;;;;;;9.00;78.59;99159.37;130974;1256;108889;-82
2023/11/10 08:29:59;;;;;;;12.90;7.80;;;;;;;9.02;78.60;99159.50;130943;1257;105878;-82
2023/11/10 08:33:06;;;;;;;10.60;7.80;;;;;;;9.08;78.57;99151.80;130870;1257;108464;-82
2023/11/10 08:36:12;;;;;;;10.20;7.50;;;;;;;9.10;78.49;99152.40;130942;1259;106467;-83
2023/11/10 08:39:18;;;;;;;11.40;7.10;;;;;;;9.11;78.65;99151.92;130795;1257;108492;-83
2023/11/10 08:42:23;;;;;;;8.60;6.20;;;;;;;9.15;78.90;99151.54;130979;1256;107489;-82
2023/11/10 08:45:29;;;;;;;10.70;6.90;;;;;;;9.23;78.83;99149.16;130953;1256;109342;-83
2023/11/10 08:48:35;;;;;;;12.70;7.00;;;;;;;9.37;79.02;99148.80;130971;1254;107516;-83
2023/11/10 08:51:41;;;;;;;11.30;6.90;;;;;;;9.55;78.83;99145.91;131022;1254;107933;-83
2023/11/10 08:54:46;;;;;;;11.30;7.20;;;;;;;9.73;78.81;99142.25;130927;1257;107707;-83
2023/11/10 08:57:52;;;;;;;8.90;7.20;;;;;;;9.88;78.36;99136.51;130923;1259;108478;-83
2023/11/10 09:00:58;;;;;;;12.90;7.20;;;;;;;10.01;78.30;99132.73;130886;1254;108428;-83
2023/11/10 09:04:04;;;;;;;9.10;7.00;;;;;;;10.13;78.43;99131.80;130988;1258;108579;-83
2023/11/10 09:07:10;;;;;;;12.10;7.50;;;;;;;10.27;78.48;99129.21;130926;1259;107706;-83
2023/11/10 09:10:16;;;;;;;11.50;7.30;;;;;;;10.40;78.33;99127.03;130850;1257;106844;-83
2023/11/10 09:13:22;;;;;;;12.20;7.20;;;;;;;10.46;77.95;99123.58;130905;1254;107611;-82
2023/11/10 09:16:28;;;;;;;10.20;6.30;;;;;;;10.49;78.12;99123.49;130845;1257;107485;-85
2023/11/10 09:19:34;;;;;;;9.60;6.50;;;;;;;10.52;77.97;99119.89;131000;1253;108465;-84
2023/11/10 09:22:39;;;;;;;10.20;6.70;;;;;;;10.56;77.89;99120.24;131046;1256;107699;-84
2023/11/10 09:25:45;;;;;;;10.40;6.70;;;;;;;10.66;77.74;99121.99;130921;1254;106426;-84
2023/11/10 09:28:51;;;;;;;9.90;6.90;;;;;;;10.78;77.91;99121.20;130958;1259;106997;-83
2023/11/10 09:31:57;;;;;;;9.30;6.90;;;;;;;10.91;77.48;99116.94;131011;1256;106113;-83
2023/11/10 09:35:02;;;;;;;11.70;7.40;;;;;;;10.98;77.18;99109.86;131169;1256;106541;-83
2023/11/10 09:38:09;;;;;;;15.00;8.10;;;;;;;11.01;77.00;99113.23;131011;1257;106912;-84
2023/11/10 09:41:15;;;;;;;10.60;7.30;;;;;;;11.06;77.31;99114.78;131055;1253;107313;-83
2023/11/10 09:44:24;;;;;;;9.30;6.70;;;;;;;11.09;77.16;99107.77;130881;1257;106992;-83
2023/11/10 09:47:29;;;;;;;10.00;6.90;;;;;;;11.12;77.07;99100.66;131183;1257;106839;-84
2023/11/10 09:50:38;;;;;;;9.30;6.40;;;;;;;11.13;77.27;99096.77;131190;1254;107706;-85
2023/11/10 09:53:45;;;;;;;8.40;6.50;;;;;;;11.14;77.27;99090.29;131193;1259;107537;-84
2023/11/10 09:56:52;;;;;;;12.50;7.20;;;;;;;11.15;77.01;99089.56;131250;1257;106619;-83
2023/11/10 09:59:58;;;;;;;10.80;7.00;;;;;;;11.17;77.21;99084.09;131208;1253;107139;-83
2023/11/10 10:03:05;;;;;;;10.50;6.70;;;;;;;11.19;76.84;99085.02;131227;1257;107729;-84
2023/11/10 10:06:17;;;;;;;9.30;5.90;;;;;;;11.22;76.87;99082.42;131240;1253;107669;-84
2023/11/10 10:09:23;;;;;;;10.30;5.80;;;;;;;11.28;77.03;99075.55;131305;1257;106910;-84
2023/11/10 10:12:31;;;;;;;10.70;6.40;;;;;;;11.38;76.71;99070.13;131281;1259;107736;-84
2023/11/10 10:15:38;;;;;;;7.90;5.70;;;;;;;11.47;76.18;99069.70;131205;1258;108562;-83
2023/11/10 10:18:46;;;;;;;9.50;6.30;;;;;;;11.55;76.09;99067.15;131292;1256;109379;-84
2023/11/10 10:21:52;;;;;;;9.10;5.90;;;;;;;11.63;76.12;99057.79;131112;1258;107048;-84
2023/11/10 10:24:58;;;;;;;9.00;5.90;;;;;;;11.72;76.16;99050.40;130943;1256;108684;-83
2023/11/10 10:28:04;;;;;;;9.00;5.60;;;;;;;11.78;75.95;99046.59;131117;1257;108656;-84
2023/11/10 10:31:11;;;;;;;8.80;5.90;;;;;;;11.83;75.91;99049.36;131121;1259;106160;-83
2023/11/10 10:34:17;;;;;;;8.10;5.70;;;;;;;11.86;75.68;99050.45;130963;1257;106443;-84
2023/11/10 10:37:22;;;;;;;8.90;6.00;;;;;;;11.94;75.74;99055.94;130936;1254;108481;-84
2023/11/10 10:40:29;;;;;;;8.80;6.10;;;;;;;12.01;75.16;99054.91;130818;1254;108675;-84
2023/11/10 10:43:35;;;;;;;8.50;6.00;;;;;;;12.06;74.94;99051.49;130724;1253;293888;-83
2023/11/10 10:46:41;;;;;;;10.40;6.00;;;;;;;12.11;75.29;99046.77;130981;1254;107465;-84
2023/11/10 10:49:51;;;;;;;10.00;6.40;;;;;;;12.15;74.77;99042.48;130989;1257;107871;-83
2023/11/10 10:52:57;;;;;;;11.10;6.30;;;;;;;12.13;74.70;99040.23;130989;1254;106515;-83
2023/11/10 10:56:07;;;;;;;7.20;5.50;;;;;;;12.09;74.64;99044.56;130884;1255;106658;-84
2023/11/10 10:59:13;;;;;;;9.90;5.70;;;;;;;12.11;74.98;99047.59;130983;1253;108259;-84
2023/11/10 11:02:20;;;;;;;8.70;5.60;;;;;;;12.13;74.67;99049.29;130924;1254;107720;-83
2023/11/10 11:05:42;;;;;;;7.00;5.20;;;;;;;12.11;74.52;99049.64;131036;1258;108599;-84
2023/11/10 11:09:06;;;;;;;7.30;5.40;;;;;;;12.07;74.22;99043.15;130929;1258;108641;-85
2023/11/10 11:12:42;;;;;;;8.90;5.80;;;;;;;12.03;74.75;99038.67;130940;1259;108078;-85
2023/11/10 11:15:59;;;;;;;7.60;5.70;;;;;;;12.04;74.68;99031.48;131018;1257;106633;-84
2023/11/10 11:19:20;;;;;;;8.70;5.60;;;;;;;12.05;74.41;99018.61;130941;1254;108744;-84
2023/11/10 11:22:27;;;;;;;9.10;5.80;;;;;;;12.04;74.41;99023.59;130867;1256;108284;-84
2023/11/10 11:25:37;;;;;;;11.00;6.00;;;;;;;12.05;74.42;99024.86;131081;1253;107580;-84
2023/11/10 11:28:42;;;;;;;8.80;6.20;;;;;;;12.02;73.84;99035.58;130928;1254;107706;-82
2023/11/10 11:31:48;;;;;;;11.10;5.60;;;;;;;11.96;74.21;99038.81;130880;1259;107901;-84
2023/11/10 11:34:59;;;;;;;12.60;5.30;;;;;;;11.91;74.12;99037.75;131020;1255;107649;-84
2023/11/10 11:38:06;;;;;;;8.60;5.70;;;;;;;11.87;74.08;99031.84;130983;1254;106865;-83
2023/11/10 11:41:15;;;;;;;10.00;6.30;;;;;;;11.82;74.08;99028.55;130957;1259;107706;-83
2023/11/10 11:44:34;;;;;;;9.10;5.80;;;;;;;11.77;73.83;99027.52;131123;1259;106074;-84
2023/11/10 11:47:40;;;;;;;9.30;6.20;;;;;;;11.70;73.88;99029.38;131242;1253;106781;-84
2023/11/10 11:50:45;;;;;;;9.10;5.70;;;;;;;11.65;73.97;99028.04;131559;1258;107213;-83
2023/11/10 11:53:54;;;;;;;7.70;5.70;;;;;;;11.61;74.18;99030.97;131119;1253;106730;-83
2023/11/10 11:57:00;;;;;;;8.20;5.60;;;;;;;11.59;73.96;99033.66;130836;1259;106272;-83
2023/11/10 12:00:08;;;;;;;9.60;6.00;;;;;;;11.61;74.02;99029.54;130995;1254;106684;-83
2023/11/10 12:03:14;;;;;;;8.20;5.80;;;;;;;11.65;73.94;99029.98;130971;1257;106595;-83
2023/11/10 12:06:20;;;;;;;7.70;5.40;;;;;;;11.68;73.78;99028.66;131043;1256;107067;-83
2023/11/10 12:09:26;;;;;;;9.80;5.90;;;;;;;11.72;73.92;99030.17;130953;1257;107865;-83
2023/11/10 12:12:31;;;;;;;8.20;5.80;;;;;;;11.74;73.80;99031.15;131109;1253;106588;-83
2023/11/10 12:15:37;;;;;;;9.70;6.20;;;;;;;11.74;73.69;99031.33;130866;1258;107567;-84
2023/11/10 12:18:43;;;;;;;10.20;6.30;;;;;;;11.74;73.80;99024.89;130945;1254;108521;-85
2023/11/10 12:21:50;;;;;;;10.20;6.40;;;;;;;11.72;73.88;99018.39;131168;1254;106701;-83
2023/11/10 12:24:59;;;;;;;9.90;6.10;;;;;;;11.71;73.81;99016.56;130851;1257;106728;-83
2023/11/10 12:28:10;;;;;;;11.10;6.30;;;;;;;11.72;73.98;99011.27;130973;1260;107637;-83
2023/11/10 12:31:15;;;;;;;8.20;6.10;;;;;;;11.72;73.71;99008.60;130841;1269;108456;-84
2023/11/10 12:34:21;;;;;;;9.80;6.20;;;;;;;11.72;73.59;99003.95;131087;1253;106307;-83
2023/11/10 12:37:28;;;;;;;9.80;6.50;;;;;;;11.69;73.74;99005.07;131266;1253;107316;-83
2023/11/10 12:40:35;;;;;;;9.90;6.30;;;;;;;11.67;73.72;99007.47;131211;1254;106835;-85
2023/11/10 12:43:42;;;;;;;8.40;6.20;;;;;;;11.62;73.71;99006.67;130948;1258;108741;-82
2023/11/10 12:46:56;;;;;;;8.50;5.50;;;;;;;11.59;74.10;99001.98;130859;1253;107628;-82
2023/11/10 12:50:03;;;;;;;10.70;6.00;;;;;;;11.61;73.85;99003.35;131016;1253;109375;-82
2023/11/10 12:53:11;;;;;;;8.40;5.60;;;;;;;11.63;73.93;99001.89;131013;1259;106799;-82
2023/11/10 12:56:16;;;;;;;10.00;6.00;;;;;;;11.69;74.08;99003.95;130950;1254;108277;-83
2023/11/10 12:59:29;;;;;;;8.20;6.10;;;;;;;11.74;73.86;99000.64;130966;1254;108621;-83
2023/11/10 13:02:35;;;;;;;9.50;5.90;;;;;;;11.76;73.64;98996.88;131129;1259;108730;-82
2023/11/10 13:05:41;;;;;;;8.90;5.90;;;;;;;11.76;73.59;98994.61;130965;1254;108153;-83
2023/11/10 13:08:46;;;;;;;7.90;6.00;;;;;;;11.73;73.73;98987.39;131049;1259;107760;-84
2023/11/10 13:11:52;;;;;;;12.80;6.60;;;;;;;11.70;73.56;98986.67;131136;1257;106625;-83
2023/11/10 13:14:57;;;;;;;10.00;6.20;;;;;;;11.66;73.51;98987.41;131279;1253;107168;-84
2023/11/10 13:18:03;;;;;;;9.00;6.20;;;;;;;11.63;73.45;98996.25;131080;1253;107672;-83
2023/11/10 13:21:10;;;;;;;11.10;5.90;;;;;;;11.60;73.51;98995.52;131190;1259;107193;-84
2023/11/10 13:24:16;;;;;;;8.30;5.80;;;;;;;11.57;73.64;98992.30;131149;1259;106647;-83
2023/11/10 13:27:23;;;;;;;9.40;6.00;;;;;;;11.54;73.33;98993.01;131117;1259;106799;-83
2023/11/10 13:30:30;;;;;;;9.80;6.40;;;;;;;11.49;73.42;98989.88;131074;1261;107766;-83
2023/11/10 13:33:36;;;;;;;10.20;6.10;;;;;;;11.46;73.26;98989.42;131038;1259;106964;-84
2023/11/10 13:36:42;;;;;;;10.60;6.40;;;;;;;11.42;73.51;98992.88;131214;1254;107799;-84
2023/11/10 13:39:48;;;;;;;8.60;6.10;;;;;;;11.37;73.34;98989.79;131110;1259;106084;-83
2023/11/10 13:42:53;;;;;;;9.20;5.80;;;;;;;11.33;73.24;98992.17;131063;1256;106423;-83
2023/11/10 13:45:59;;;;;;;9.70;6.50;;;;;;;11.31;73.32;98989.56;130845;1257;107016;-82
2023/11/10 13:49:06;;;;;;;12.40;6.60;;;;;;;11.30;73.30;98990.13;130948;1256;107705;-82
2023/11/10 13:52:11;;;;;;;9.30;5.20;;;;;;;11.27;73.35;98985.61;130923;1255;107409;-82
2023/11/10 13:55:17;;;;;;;11.40;6.00;;;;;;;11.29;73.55;98987.73;130960;1253;107899;-82
2023/11/10 13:58:23;;;;;;;8.20;5.70;;;;;;;11.34;73.46;98988.64;130996;1259;108558;-84
2023/11/10 14:01:28;;;;;;;9.00;5.40;;;;;;;11.39;73.22;98986.77;130870;1258;106887;-84
2023/11/10 14:04:35;;;;;;;9.10;5.60;;;;;;;11.44;73.18;98978.27;131012;1259;108476;-82
2023/11/10 14:07:41;;;;;;;7.70;5.60;;;;;;;11.44;73.29;98977.04;130842;1259;108673;-82
2023/11/10 14:10:47;;;;;;;9.60;5.90;;;;;;;11.41;73.41;98979.67;131020;1260;108632;-82
2023/11/10 14:13:53;;;;;;;11.00;6.90;;;;;;;11.36;73.36;98981.52;130880;1254;107404;-85
2023/11/10 14:16:58;;;;;;;10.40;6.40;;;;;;;11.30;73.53;98983.48;130887;1258;108257;-82